createdAt,value
2024-01-11T00:01:37.787Z,17.67
2024-01-11T00:04:04.138Z,13.43
2024-01-11T00:06:30.586Z,11.95
2024-01-11T00:08:56.872Z,11.45
2024-01-11T00:11:23.173Z,12.20
2024-01-11T00:13:49.423Z,14.93
2024-01-11T00:16:16.176Z,14.82
2024-01-11T00:18:42.463Z,14.07
2024-01-11T00:21:08.916Z,14.35
2024-01-11T00:23:35.533Z,9.13
2024-01-11T00:26:01.894Z,10.77
2024-01-11T00:28:28.287Z,10.80
2024-01-11T00:30:54.702Z,13.27
2024-01-11T00:33:21.111Z,11.48
2024-01-11T00:35:47.737Z,15.48
2024-01-11T00:38:14.014Z,25.52
2024-01-11T00:40:40.284Z,17.52
2024-01-11T00:43:06.539Z,12.88
2024-01-11T00:45:32.790Z,16.55
2024-01-11T00:47:59.108Z,14.30
2024-01-11T00:50:25.479Z,15.85
2024-01-11T00:52:51.786Z,11.25
2024-01-11T00:55:18.105Z,8.35
2024-01-11T00:57:44.404Z,6.78
2024-01-11T01:00:11.042Z,13.32
2024-01-11T01:02:37.383Z,11.10
2024-01-11T01:05:03.920Z,17.98
2024-01-11T01:07:30.202Z,14.25
2024-01-11T01:09:56.445Z,22.30
2024-01-11T01:12:22.758Z,14.18
2024-01-11T01:14:48.989Z,18.25
2024-01-11T01:17:17.172Z,10.63
2024-01-11T01:22:10.460Z,17.10
2024-01-11T01:24:36.892Z,20.02
2024-01-11T01:27:03.288Z,15.05
2024-01-11T01:29:29.589Z,17.27
2024-01-11T01:31:55.862Z,20.17
2024-01-11T01:34:22.414Z,12.88
2024-01-11T01:36:48.736Z,9.10
2024-01-11T01:39:15.039Z,17.00
2024-01-11T01:41:41.339Z,13.88
2024-01-11T01:44:07.660Z,18.05
2024-01-11T01:46:35.445Z,26.75
2024-01-11T01:49:01.924Z,15.65
2024-01-11T01:51:30.271Z,11.32
2024-01-11T01:53:57.527Z,6.03
2024-01-11T01:56:24.084Z,12.18
2024-01-11T01:58:52.420Z,15.80
2024-01-11T02:01:19.796Z,16.38
2024-01-11T02:03:46.931Z,15.25
2024-01-11T02:06:14.830Z,7.68
2024-01-11T02:08:43.490Z,12.07
2024-01-11T02:13:36.081Z,15.13
2024-01-11T02:16:02.377Z,14.75
2024-01-11T02:18:28.765Z,20.02
2024-01-11T02:20:55.351Z,12.02
2024-01-11T02:23:22.587Z,12.48
2024-01-11T02:25:48.877Z,22.83
2024-01-11T02:28:15.182Z,17.75
2024-01-11T02:30:41.500Z,11.15
2024-01-11T02:33:08.451Z,8.27
2024-01-11T02:35:35.493Z,13.60
2024-01-11T02:38:02.130Z,11.50
2024-01-11T02:40:28.741Z,13.93
2024-01-11T02:42:55.053Z,13.00
2024-01-11T02:45:21.362Z,11.63
2024-01-11T02:47:47.797Z,17.10
2024-01-11T02:50:14.305Z,11.77
2024-01-11T02:52:40.636Z,15.88
2024-01-11T02:55:07.511Z,17.60
2024-01-11T02:57:33.832Z,3.97
2024-01-11T03:00:00.158Z,13.35
2024-01-11T03:02:26.597Z,12.25
2024-01-11T03:04:53.025Z,10.93
2024-01-11T03:07:19.350Z,14.82
2024-01-11T03:09:45.865Z,13.52
2024-01-11T03:12:12.248Z,10.60
2024-01-11T03:14:38.697Z,6.18
2024-01-11T03:17:06.282Z,11.93
2024-01-11T03:19:32.594Z,8.63
2024-01-11T03:21:59.019Z,13.60
2024-01-11T03:24:25.254Z,13.07
2024-01-11T03:26:51.516Z,11.32
2024-01-11T03:29:18.006Z,12.90
2024-01-11T03:31:45.858Z,8.65
2024-01-11T03:34:12.407Z,13.05
2024-01-11T03:36:38.796Z,10.32
2024-01-11T03:39:05.063Z,11.25
2024-01-11T03:41:31.532Z,12.23
2024-01-11T03:43:57.890Z,12.27
2024-01-11T03:46:24.225Z,11.20
2024-01-11T03:48:50.611Z,15.80
2024-01-11T03:51:16.910Z,15.05
2024-01-11T03:53:43.244Z,12.85
2024-01-11T03:56:09.808Z,18.90
2024-01-11T03:58:37.042Z,15.38
2024-01-11T04:01:03.364Z,9.18
2024-01-11T04:03:29.783Z,8.73
2024-01-11T04:05:56.673Z,7.72
2024-01-11T04:08:22.966Z,12.23
2024-01-11T04:10:49.219Z,13.48
2024-01-11T04:13:15.582Z,16.02
2024-01-11T04:15:41.835Z,17.00
2024-01-11T04:18:08.301Z,10.02
2024-01-11T04:20:34.934Z,13.93
2024-01-11T04:23:01.260Z,12.57
2024-01-11T04:25:27.605Z,12.05
2024-01-11T04:27:53.966Z,11.77
2024-01-11T04:30:20.348Z,15.20
2024-01-11T04:32:46.678Z,14.02
2024-01-11T04:35:13.124Z,14.25
2024-01-11T04:37:39.590Z,15.75
2024-01-11T04:40:08.265Z,17.02
2024-01-11T04:42:34.554Z,19.40
2024-01-11T04:45:00.849Z,14.75
2024-01-11T04:47:27.234Z,18.10
2024-01-11T04:49:53.583Z,8.68
2024-01-11T04:52:19.805Z,12.43
2024-01-11T04:54:46.086Z,3.90
2024-01-11T04:57:12.477Z,18.20
2024-01-11T04:59:38.878Z,10.07
2024-01-11T05:02:05.240Z,4.63
2024-01-11T05:04:31.558Z,6.93
2024-01-11T05:06:57.811Z,5.20
2024-01-11T05:09:24.092Z,14.32
2024-01-11T05:11:50.357Z,15.60
2024-01-11T05:14:16.728Z,18.85
2024-01-11T05:16:43.241Z,24.95
2024-01-11T05:19:09.648Z,16.55
2024-01-11T05:21:36.750Z,17.85
2024-01-11T05:24:03.088Z,22.45
2024-01-11T05:26:29.446Z,10.65
2024-01-11T05:28:55.748Z,19.50
2024-01-11T05:31:23.159Z,19.42
2024-01-11T05:33:49.882Z,12.25
2024-01-11T05:36:16.252Z,13.63
2024-01-11T05:38:42.687Z,13.90
2024-01-11T05:41:09.452Z,11.40
2024-01-11T05:43:36.473Z,18.23
2024-01-11T05:46:03.163Z,14.05
2024-01-11T05:48:29.629Z,8.07
2024-01-11T05:50:55.997Z,12.05
2024-01-11T05:53:22.596Z,7.90
2024-01-11T05:55:49.800Z,6.88
2024-01-11T05:58:16.893Z,12.93
2024-01-11T06:00:43.492Z,7.75
2024-01-11T06:03:09.889Z,6.30
2024-01-11T06:05:36.335Z,16.58
2024-01-11T06:08:02.741Z,4.72
2024-01-11T06:10:28.993Z,7.07
2024-01-11T06:12:55.295Z,17.65
2024-01-11T06:15:21.558Z,12.05
2024-01-11T06:17:48.023Z,6.82
2024-01-11T06:20:14.433Z,7.95
2024-01-11T06:22:42.881Z,7.53
2024-01-11T06:25:10.844Z,5.40
2024-01-11T06:27:37.125Z,12.38
2024-01-11T06:30:03.790Z,14.77
2024-01-11T06:32:30.243Z,12.43
2024-01-11T06:34:56.714Z,13.32
2024-01-11T06:37:23.680Z,11.43
2024-01-11T06:39:50.718Z,15.82
2024-01-11T06:42:18.078Z,14.77
2024-01-11T06:44:45.441Z,17.27
2024-01-11T06:47:11.825Z,17.70
2024-01-11T06:49:42.105Z,14.60
2024-01-11T06:52:08.406Z,13.40
2024-01-11T06:54:41.281Z,20.00
2024-01-11T06:57:07.565Z,18.08
2024-01-11T06:59:33.991Z,19.85
2024-01-11T07:02:00.277Z,12.32
2024-01-11T07:04:26.550Z,12.63
2024-01-11T07:06:52.810Z,17.88
2024-01-11T07:09:19.487Z,16.52
2024-01-11T07:11:45.859Z,18.00
2024-01-11T07:14:12.271Z,21.85
2024-01-11T07:16:38.770Z,23.45
2024-01-11T07:19:05.093Z,21.13
2024-01-11T07:21:32.418Z,16.85
2024-01-11T07:23:59.165Z,8.43
2024-01-11T07:26:26.030Z,12.43
2024-01-11T07:28:52.358Z,6.35
2024-01-11T07:31:18.695Z,21.02
2024-01-11T07:33:46.056Z,11.80
2024-01-11T07:36:12.857Z,13.95
2024-01-11T07:38:39.644Z,16.20
2024-01-11T07:41:06.026Z,19.60
2024-01-11T07:43:44.971Z,19.92
2024-01-11T07:46:15.648Z,12.25
2024-01-11T07:48:42.051Z,18.08
2024-01-11T07:51:08.783Z,14.10
2024-01-11T07:53:35.434Z,10.13
2024-01-11T07:56:02.187Z,8.25
2024-01-11T07:58:28.564Z,12.90
2024-01-11T08:00:55.390Z,14.15
2024-01-11T08:03:21.741Z,14.75
2024-01-11T08:05:51.375Z,17.30
2024-01-11T08:08:18.103Z,15.73
2024-01-11T08:10:44.437Z,11.93
2024-01-11T08:13:10.878Z,11.68
2024-01-11T08:15:38.989Z,13.63
2024-01-11T08:18:06.027Z,13.07
2024-01-11T08:20:32.672Z,10.10
2024-01-11T08:22:59.321Z,16.48
2024-01-11T08:25:25.600Z,21.70
2024-01-11T08:27:51.884Z,17.17
2024-01-11T08:30:18.307Z,17.13
2024-01-11T08:32:44.872Z,24.73
2024-01-11T08:35:12.839Z,15.60
2024-01-11T08:37:40.240Z,17.13
2024-01-11T08:40:06.941Z,19.20
2024-01-11T08:42:33.715Z,16.20
2024-01-11T08:45:01.685Z,10.80
2024-01-11T08:47:28.354Z,16.83
2024-01-11T08:49:54.796Z,23.20
2024-01-11T08:52:21.238Z,14.00
2024-01-11T08:54:47.598Z,16.25
2024-01-11T08:57:13.895Z,15.90
2024-01-11T08:59:40.169Z,15.38
2024-01-11T09:02:13.949Z,17.83
2024-01-11T09:04:43.418Z,14.57
2024-01-11T09:07:09.828Z,18.42
2024-01-11T09:09:44.027Z,17.73
2024-01-11T09:12:14.464Z,24.60
2024-01-11T09:14:40.891Z,4.15
2024-01-11T09:17:10.023Z,23.80
2024-01-11T09:19:38.625Z,28.25
2024-01-11T09:22:05.055Z,24.25
2024-01-11T09:24:35.878Z,24.52
2024-01-11T09:27:05.097Z,26.77
2024-01-11T09:29:31.389Z,7.15
2024-01-11T09:31:57.790Z,19.83
2024-01-11T09:34:24.172Z,36.63
2024-01-11T09:36:50.842Z,21.40
2024-01-11T09:39:19.965Z,29.48
2024-01-11T09:41:53.664Z,20.20
2024-01-11T09:44:20.177Z,31.98
2024-01-11T09:46:47.064Z,22.58
2024-01-11T09:49:14.274Z,19.38
2024-01-11T09:51:40.800Z,26.17
2024-01-11T09:54:08.608Z,12.27
2024-01-11T09:56:36.608Z,23.95
2024-01-11T09:59:03.971Z,23.35
2024-01-11T10:01:30.265Z,8.65
2024-01-11T10:03:56.627Z,21.67
2024-01-11T10:06:24.137Z,15.23
2024-01-11T10:08:50.439Z,14.65
2024-01-11T10:11:16.826Z,11.35
2024-01-11T10:13:43.181Z,16.38
2024-01-11T10:16:16.576Z,17.45
2024-01-11T10:18:43.221Z,26.13
2024-01-11T10:21:10.704Z,24.88
2024-01-11T10:23:37.430Z,25.13
2024-01-11T10:26:03.908Z,27.77
2024-01-11T10:28:30.367Z,18.98
2024-01-11T10:30:57.723Z,26.45
2024-01-11T10:33:24.243Z,27.05
2024-01-11T10:35:53.483Z,20.98
2024-01-11T10:38:21.327Z,13.98
2024-01-11T10:40:47.824Z,28.73
2024-01-11T10:43:19.959Z,33.20
2024-01-11T10:45:49.395Z,26.00
2024-01-11T10:48:16.918Z,26.15
2024-01-11T10:50:44.210Z,23.15
2024-01-11T10:53:10.511Z,28.73
2024-01-11T10:55:37.442Z,23.38
2024-01-11T10:58:04.878Z,26.65
2024-01-11T11:00:31.905Z,11.00
2024-01-11T11:03:01.039Z,25.42
2024-01-11T11:05:29.906Z,19.13
2024-01-11T11:07:56.795Z,24.52
2024-01-11T11:10:23.297Z,20.65
2024-01-11T11:12:50.107Z,11.85
2024-01-11T11:15:16.456Z,23.55
2024-01-11T11:17:44.926Z,32.83
2024-01-11T11:20:13.113Z,32.90
2024-01-11T11:22:41.272Z,27.60
2024-01-11T11:25:09.450Z,26.23
2024-01-11T11:27:36.097Z,25.05
2024-01-11T11:30:02.405Z,21.05
2024-01-11T11:32:38.962Z,27.70
2024-01-11T11:35:06.210Z,24.48
2024-01-11T11:37:35.363Z,18.80
2024-01-11T11:40:02.010Z,13.32
2024-01-11T11:42:31.194Z,31.60
2024-01-11T11:44:58.818Z,30.40
2024-01-11T11:47:25.413Z,30.08
2024-01-11T11:50:08.712Z,22.10
2024-01-11T11:52:38.550Z,28.02
2024-01-11T11:55:06.021Z,26.45
2024-01-11T11:57:33.624Z,32.65
2024-01-11T12:00:00.279Z,25.63
2024-01-11T12:02:27.411Z,28.45
2024-01-11T12:04:54.532Z,30.95
2024-01-11T12:07:21.512Z,30.48
2024-01-11T12:09:48.074Z,18.10
2024-01-11T12:12:16.277Z,30.20
2024-01-11T12:14:43.809Z,23.60
2024-01-11T12:17:10.281Z,15.05
2024-01-11T12:19:36.602Z,24.85
2024-01-11T12:22:02.979Z,32.00
2024-01-11T12:24:31.121Z,17.40
2024-01-11T12:26:58.718Z,27.63
2024-01-11T12:29:25.116Z,25.13
2024-01-11T12:31:51.885Z,23.52
2024-01-11T12:34:18.586Z,26.88
2024-01-11T12:36:45.036Z,16.33
2024-01-11T12:39:14.301Z,23.80
2024-01-11T12:41:40.806Z,29.52
2024-01-11T12:44:07.309Z,26.27
2024-01-11T12:46:33.857Z,21.30
2024-01-11T12:49:00.595Z,24.15
2024-01-11T12:51:27.008Z,25.17
2024-01-11T12:53:54.245Z,24.58
2024-01-11T12:56:23.135Z,27.85
2024-01-11T12:58:49.886Z,24.92
2024-01-11T13:01:16.518Z,22.33
2024-01-11T13:03:45.672Z,19.42
2024-01-11T13:06:13.155Z,24.17
2024-01-11T13:08:42.736Z,17.08
2024-01-11T13:11:09.187Z,17.85
2024-01-11T13:13:35.827Z,28.30
2024-01-11T13:16:07.113Z,25.70
2024-01-11T13:18:33.691Z,14.02
2024-01-11T13:21:00.043Z,21.20
2024-01-11T13:23:26.436Z,13.80
2024-01-11T13:25:52.822Z,25.05
2024-01-11T13:28:20.459Z,26.95
2024-01-11T13:30:47.187Z,23.55
2024-01-11T13:33:13.786Z,19.67
2024-01-11T13:35:40.957Z,21.35
2024-01-11T13:38:07.821Z,16.80
2024-01-11T13:40:34.295Z,21.52
2024-01-11T13:43:00.924Z,30.10
2024-01-11T13:45:30.831Z,18.48
2024-01-11T13:47:57.210Z,25.20
2024-01-11T13:50:25.682Z,23.15
2024-01-11T13:52:52.380Z,19.67
2024-01-11T13:55:19.090Z,18.13
2024-01-11T13:57:45.386Z,20.63
2024-01-11T14:00:14.838Z,17.65
2024-01-11T14:02:41.632Z,19.42
2024-01-11T14:05:10.837Z,18.58
2024-01-11T14:07:37.176Z,18.25
2024-01-11T14:10:03.846Z,19.73
2024-01-11T14:12:30.178Z,20.27
2024-01-11T14:14:56.458Z,20.17
2024-01-11T14:17:23.337Z,19.85
2024-01-11T14:19:49.769Z,20.73
2024-01-11T14:22:16.288Z,21.75
2024-01-11T14:24:42.547Z,21.05
2024-01-11T14:27:10.701Z,21.88
2024-01-11T14:32:03.327Z,16.27
2024-01-11T14:34:29.836Z,16.17
2024-01-11T14:36:59.347Z,18.08
2024-01-11T14:39:26.687Z,21.00
2024-01-11T14:41:53.313Z,21.30
2024-01-11T14:44:19.622Z,22.17
2024-01-11T14:46:45.894Z,22.90
2024-01-11T14:49:12.349Z,14.35
2024-01-11T14:51:38.784Z,19.13
2024-01-11T14:54:05.317Z,17.88
2024-01-11T14:56:32.126Z,19.45
2024-01-11T14:58:58.420Z,22.63
2024-01-11T15:01:24.709Z,21.85
2024-01-11T15:03:51.012Z,20.63
2024-01-11T15:06:17.568Z,22.85
2024-01-11T15:08:44.038Z,17.60
2024-01-11T15:11:10.444Z,22.50
2024-01-11T15:13:36.692Z,20.25
2024-01-11T15:16:03.017Z,24.92
2024-01-11T15:18:29.485Z,24.38
2024-01-11T15:20:55.855Z,18.05
2024-01-11T15:23:23.084Z,21.25
2024-01-11T15:25:49.359Z,23.20
2024-01-11T15:28:15.699Z,24.35
2024-01-11T15:30:42.085Z,21.67
2024-01-11T15:33:08.490Z,27.17
2024-01-11T15:35:34.995Z,27.67
2024-01-11T15:38:01.304Z,21.25
2024-01-11T15:40:27.544Z,22.85
2024-01-11T15:42:53.840Z,21.55
2024-01-11T15:45:20.416Z,18.88
2024-01-11T15:47:46.863Z,24.58
2024-01-11T15:50:13.339Z,22.20
2024-01-11T15:52:39.962Z,23.17
2024-01-11T15:55:06.643Z,21.65
2024-01-11T15:57:33.236Z,25.55
2024-01-11T15:59:59.657Z,29.52
2024-01-11T16:02:26.013Z,28.80
2024-01-11T16:04:52.318Z,26.45
2024-01-11T16:07:18.620Z,31.77
2024-01-11T16:09:49.388Z,26.02
2024-01-11T16:12:15.613Z,29.00
2024-01-11T16:14:44.162Z,27.15
2024-01-11T16:17:10.477Z,25.83
2024-01-11T16:19:37.570Z,26.70
2024-01-11T16:22:04.427Z,23.52
2024-01-11T16:24:31.153Z,26.00
2024-01-11T16:26:57.504Z,16.48
2024-01-11T16:29:24.637Z,29.23
2024-01-11T16:31:51.102Z,27.75
2024-01-11T16:34:17.379Z,27.15
2024-01-11T16:36:44.874Z,23.15
2024-01-11T16:39:11.756Z,23.05
2024-01-11T16:41:38.670Z,23.95
2024-01-11T16:44:05.566Z,26.83
2024-01-11T16:46:31.921Z,20.13
2024-01-11T16:48:58.577Z,29.23
2024-01-11T16:51:24.875Z,26.40
2024-01-11T16:53:51.121Z,28.60
2024-01-11T16:56:17.462Z,20.52
2024-01-11T16:58:43.756Z,14.07
2024-01-11T17:01:13.590Z,24.58
2024-01-11T17:03:40.444Z,19.73
2024-01-11T17:06:06.872Z,21.73
2024-01-11T17:08:33.569Z,16.90
2024-01-11T17:11:00.024Z,25.17
2024-01-11T17:13:26.305Z,19.35
2024-01-11T17:15:52.577Z,23.25
2024-01-11T17:18:19.137Z,26.02
2024-01-11T17:20:45.926Z,20.63
2024-01-11T17:23:12.250Z,31.10
2024-01-11T17:25:38.575Z,26.92
2024-01-11T17:28:05.058Z,30.13
2024-01-11T17:30:31.410Z,23.70
2024-01-11T17:32:57.779Z,26.45
2024-01-11T17:35:24.856Z,21.27
2024-01-11T17:37:51.205Z,9.25
2024-01-11T17:40:17.421Z,12.70
2024-01-11T17:42:43.662Z,19.70
2024-01-11T17:45:11.058Z,18.50
2024-01-11T17:47:37.456Z,22.33
2024-01-11T17:50:03.938Z,21.90
2024-01-11T17:52:30.264Z,28.00
2024-01-11T17:54:57.271Z,22.73
2024-01-11T17:57:23.521Z,30.73
2024-01-11T17:59:50.545Z,39.20
2024-01-11T18:02:16.927Z,27.15
2024-01-11T18:04:43.684Z,28.38
2024-01-11T18:07:10.040Z,25.42
2024-01-11T18:09:36.684Z,27.70
2024-01-11T18:12:03.118Z,24.65
2024-01-11T18:14:29.435Z,32.25
2024-01-11T18:16:55.713Z,21.70
2024-01-11T18:19:22.762Z,25.25
2024-01-11T18:21:49.075Z,25.38
2024-01-11T18:24:15.347Z,29.55
2024-01-11T18:26:41.638Z,32.13
2024-01-11T18:29:08.044Z,29.90
2024-01-11T18:31:34.394Z,24.05
2024-01-11T18:34:01.864Z,27.83
2024-01-11T18:36:28.181Z,29.80
2024-01-11T18:38:58.230Z,28.33
2024-01-11T18:41:24.702Z,30.75
2024-01-11T18:43:51.069Z,28.05
2024-01-11T18:46:17.373Z,29.73
2024-01-11T18:48:44.010Z,33.17
2024-01-11T18:51:10.411Z,39.60
2024-01-11T18:53:36.751Z,25.98
2024-01-11T18:56:03.038Z,20.23
2024-01-11T18:58:30.641Z,28.38
2024-01-11T19:00:57.084Z,22.10
2024-01-11T19:03:24.879Z,20.42
2024-01-11T19:05:51.518Z,21.33
2024-01-11T19:08:17.961Z,20.02
2024-01-11T19:10:44.243Z,27.35
2024-01-11T19:13:10.772Z,20.95
2024-01-11T19:15:37.442Z,16.08
2024-01-11T19:18:04.478Z,22.40
2024-01-11T19:20:31.013Z,20.95
2024-01-11T19:22:57.291Z,23.40
2024-01-11T19:25:23.558Z,28.25
2024-01-11T19:27:51.183Z,19.40
2024-01-11T19:30:17.554Z,26.17
2024-01-11T19:32:44.467Z,23.88
2024-01-11T19:35:11.269Z,18.67
2024-01-11T19:37:37.748Z,19.13
2024-01-11T19:40:05.378Z,20.55
2024-01-11T19:42:31.747Z,12.75
2024-01-11T19:44:58.088Z,18.80
2024-01-11T19:47:24.520Z,10.80
2024-01-11T19:49:50.825Z,16.40
2024-01-11T19:52:17.138Z,10.85
2024-01-11T19:54:43.513Z,13.25
2024-01-11T19:57:09.842Z,13.65
2024-01-11T19:59:36.252Z,14.18
2024-01-11T20:02:03.617Z,13.13
2024-01-11T20:04:33.333Z,13.43
2024-01-11T20:06:59.983Z,16.42
2024-01-11T20:09:26.232Z,12.63
2024-01-11T20:11:52.691Z,18.17
2024-01-11T20:14:19.497Z,18.35
2024-01-11T20:16:45.883Z,15.25
2024-01-11T20:19:12.229Z,14.77
2024-01-11T20:21:38.843Z,18.20
2024-01-11T20:24:05.586Z,9.70
2024-01-11T20:26:31.969Z,9.88
2024-01-11T20:28:58.497Z,18.13
2024-01-11T20:31:24.850Z,16.00
2024-01-11T20:33:51.347Z,15.45
2024-01-11T20:36:17.733Z,16.27
2024-01-11T20:38:44.005Z,18.83
2024-01-11T20:41:13.332Z,17.13
2024-01-11T20:43:41.411Z,14.30
2024-01-11T20:46:07.658Z,17.75
2024-01-11T20:48:34.096Z,16.83
2024-01-11T20:51:00.672Z,12.85
2024-01-11T20:53:27.077Z,16.52
2024-01-11T20:55:53.396Z,14.98
2024-01-11T20:58:19.661Z,14.90
2024-01-11T21:00:45.910Z,17.88
2024-01-11T21:03:12.235Z,18.50
2024-01-11T21:05:38.760Z,13.90
2024-01-11T21:08:05.393Z,15.32
2024-01-11T21:10:31.743Z,16.20
2024-01-11T21:12:58.202Z,16.05
2024-01-11T21:15:24.468Z,17.00
2024-01-11T21:17:50.956Z,17.08
2024-01-11T21:20:17.373Z,15.75
2024-01-11T21:22:43.639Z,12.80
2024-01-11T21:25:09.940Z,15.32
2024-01-11T21:27:36.325Z,19.67
2024-01-11T21:30:02.697Z,11.02
2024-01-11T21:32:29.048Z,14.90
2024-01-11T21:34:55.359Z,14.13
2024-01-11T21:37:21.647Z,16.83
2024-01-11T21:39:47.892Z,16.48
2024-01-11T21:42:14.139Z,14.35
2024-01-11T21:44:40.504Z,13.70
2024-01-11T21:47:06.774Z,19.92
2024-01-11T21:49:33.261Z,9.50
2024-01-11T21:51:59.803Z,12.50
2024-01-11T21:54:26.190Z,15.32
2024-01-11T21:56:52.627Z,10.88
2024-01-11T21:59:18.941Z,7.38
2024-01-11T22:01:45.279Z,15.77
2024-01-11T22:04:11.962Z,8.50
2024-01-11T22:06:38.463Z,12.30
2024-01-11T22:09:05.896Z,10.48
2024-01-11T22:11:33.033Z,10.13
2024-01-11T22:13:59.501Z,12.05
2024-01-11T22:16:25.796Z,7.38
2024-01-11T22:18:52.311Z,4.13
2024-01-11T22:21:19.025Z,5.32
2024-01-11T22:23:45.419Z,8.38
2024-01-11T22:26:11.733Z,7.57
2024-01-11T22:28:38.117Z,5.78
2024-01-11T22:31:04.455Z,8.73
2024-01-11T22:33:30.986Z,6.70
2024-01-11T22:35:57.998Z,6.75
2024-01-11T22:38:24.341Z,14.10
2024-01-11T22:40:50.652Z,6.72
2024-01-11T22:43:16.931Z,6.93
2024-01-11T22:45:43.161Z,7.18
2024-01-11T22:48:09.530Z,7.95
2024-01-11T22:50:35.818Z,4.68
2024-01-11T22:53:02.151Z,10.63
2024-01-11T22:55:28.488Z,7.85
2024-01-11T22:57:54.729Z,12.50
2024-01-11T23:00:26.481Z,12.55
2024-01-11T23:02:53.225Z,6.05
2024-01-11T23:05:19.952Z,15.57
2024-01-11T23:07:46.515Z,7.93
2024-01-11T23:10:13.206Z,15.85
2024-01-11T23:12:43.187Z,13.13
2024-01-11T23:15:10.489Z,10.32
2024-01-11T23:17:36.847Z,10.85
2024-01-11T23:20:05.622Z,4.53
2024-01-11T23:22:31.902Z,9.25
2024-01-11T23:24:58.129Z,16.40
2024-01-11T23:27:24.498Z,10.40
2024-01-11T23:29:50.827Z,10.35
2024-01-11T23:32:17.195Z,16.15
2024-01-11T23:34:43.805Z,15.60
2024-01-11T23:37:10.179Z,7.68
2024-01-11T23:39:36.471Z,9.68
2024-01-11T23:42:02.752Z,13.50
2024-01-11T23:44:29.075Z,4.72
2024-01-11T23:46:55.400Z,11.18
2024-01-11T23:49:21.955Z,13.52
2024-01-11T23:51:48.302Z,11.98
2024-01-11T23:54:14.745Z,14.07
2024-01-11T23:56:42.941Z,13.43
2024-01-11T23:59:09.390Z,12.32
